createdAt,value
2019-04-19T00:00:56.067Z,99.90
2019-04-19T00:05:52.567Z,99.90
2019-04-19T00:10:57.007Z,99.90
2019-04-19T00:13:21.919Z,99.90
2019-04-19T00:15:51.769Z,99.90
2019-04-19T00:18:21.770Z,99.90
2019-04-19T00:21:06.930Z,99.90
2019-04-19T00:23:31.122Z,99.90
2019-04-19T00:28:32.262Z,99.90
2019-04-19T00:31:00.424Z,99.90
2019-04-19T00:33:28.488Z,99.90
2019-04-19T00:35:51.680Z,99.90
2019-04-19T00:38:38.218Z,99.90
2019-04-19T00:41:25.621Z,99.90
2019-04-19T00:43:55.940Z,99.90
2019-04-19T00:46:30.433Z,99.90
2019-04-19T00:48:55.186Z,99.90
2019-04-19T00:53:55.606Z,99.90
2019-04-19T00:56:19.842Z,99.90
2019-04-19T00:58:51.675Z,99.90
2019-04-19T01:01:18.039Z,99.90
2019-04-19T01:03:46.306Z,99.90
2019-04-19T01:06:18.268Z,99.90
2019-04-19T01:08:56.377Z,99.90
2019-04-19T01:11:28.586Z,99.90
2019-04-19T01:14:01.077Z,99.90
2019-04-19T01:16:24.185Z,99.90
2019-04-19T01:21:15.609Z,99.90
2019-04-19T01:26:15.560Z,99.90
2019-04-19T01:28:51.313Z,99.90
2019-04-19T01:31:17.775Z,99.90
2019-04-19T01:36:14.634Z,99.90
2019-04-19T01:38:47.904Z,99.90
2019-04-19T01:41:30.918Z,99.90
2019-04-19T01:43:59.589Z,99.90
2019-04-19T01:46:38.956Z,99.90
2019-04-19T01:51:49.076Z,99.90
2019-04-19T01:56:54.906Z,99.90
2019-04-19T01:59:18.145Z,99.90
2019-04-19T02:01:50.642Z,99.90
2019-04-19T02:04:22.885Z,99.90
2019-04-19T02:06:51.107Z,99.90
2019-04-19T02:09:29.273Z,99.90
2019-04-19T02:12:16.861Z,99.90
2019-04-19T02:17:03.104Z,99.90
2019-04-19T02:19:31.400Z,99.90
2019-04-19T02:22:07.350Z,99.90
2019-04-19T02:24:37.319Z,99.90
2019-04-19T02:27:05.032Z,99.90
2019-04-19T02:29:32.053Z,99.90
2019-04-19T02:32:30.985Z,99.90
2019-04-19T02:34:53.294Z,99.90
2019-04-19T02:39:57.319Z,99.90
2019-04-19T02:45:08.360Z,99.90
2019-04-19T02:47:38.400Z,99.90
2019-04-19T02:50:11.593Z,99.90
2019-04-19T03:07:21.800Z,99.90
2019-04-19T03:13:00.529Z,99.90
2019-04-19T03:20:26.325Z,99.90
2019-04-19T03:22:59.361Z,99.90
2019-04-19T03:25:24.091Z,99.90
2019-04-19T03:27:57.074Z,99.90
2019-04-19T03:30:40.295Z,99.90
2019-04-19T03:33:17.061Z,99.90
2019-04-19T03:38:02.610Z,99.90
2019-04-19T03:43:00.502Z,99.90
2019-04-19T03:45:35.307Z,99.90
2019-04-19T03:48:08.941Z,99.90
2019-04-19T03:50:32.408Z,99.90
2019-04-19T03:53:08.641Z,99.90
2019-04-19T03:55:36.053Z,99.90
2019-04-19T03:57:58.118Z,99.90
2019-04-19T04:00:19.541Z,99.90
2019-04-19T04:02:50.010Z,99.90
2019-04-19T04:07:58.102Z,99.90
2019-04-19T04:10:37.693Z,99.90
2019-04-19T04:13:22.440Z,99.90
2019-04-19T04:16:05.585Z,99.90
2019-04-19T04:18:23.663Z,99.90
2019-04-19T04:23:29.844Z,99.90
2019-04-19T04:26:01.152Z,99.90
2019-04-19T04:28:32.627Z,99.90
2019-04-19T04:31:05.602Z,99.90
2019-04-19T04:33:36.442Z,99.90
2019-04-19T04:36:16.941Z,99.90
2019-04-19T04:38:31.246Z,99.90
2019-04-19T04:40:54.761Z,99.90
2019-04-19T04:46:23.613Z,99.90
2019-04-19T04:48:53.097Z,99.90
2019-04-19T04:51:25.347Z,99.90
2019-04-19T04:56:11.827Z,99.90
2019-04-19T04:58:44.109Z,99.90
2019-04-19T05:01:15.471Z,99.90
2019-04-19T05:06:25.930Z,99.90
2019-04-19T05:08:58.479Z,99.90
2019-04-19T05:11:25.920Z,99.90
2019-04-19T05:14:00.803Z,99.90
2019-04-19T05:19:00.597Z,99.90
2019-04-19T05:21:27.525Z,99.90
2019-04-19T05:24:05.203Z,99.90
2019-04-19T05:26:38.678Z,99.90
2019-04-19T05:28:59.776Z,99.90
2019-04-19T05:31:25.494Z,99.90
2019-04-19T05:34:02.177Z,99.90
2019-04-19T05:39:12.366Z,99.90
2019-04-19T05:41:36.273Z,99.90
2019-04-19T05:44:23.444Z,99.90
2019-04-19T05:49:07.746Z,99.90
2019-04-19T05:51:43.324Z,99.90
2019-04-19T05:56:22.082Z,99.90
2019-04-19T05:59:02.724Z,99.90
2019-04-19T06:01:36.080Z,99.90
2019-04-19T06:04:11.686Z,99.90
2019-04-19T06:06:43.822Z,99.90
2019-04-19T06:08:51.959Z,99.90
2019-04-19T06:11:26.773Z,99.90
2019-04-19T06:14:11.630Z,99.90
2019-04-19T06:21:36.668Z,99.90
2019-04-19T06:24:16.763Z,99.90
2019-04-19T06:29:11.578Z,99.90
2019-04-19T06:31:46.218Z,99.90
2019-04-19T06:34:18.699Z,99.90
2019-04-19T06:36:23.161Z,99.90
2019-04-19T06:38:52.778Z,99.90
2019-04-19T06:44:02.986Z,99.90
2019-04-19T06:46:36.375Z,99.90
2019-04-19T06:48:59.643Z,99.90
2019-04-19T06:51:31.834Z,98.40
2019-04-19T06:56:28.345Z,96.50
2019-04-19T07:01:33.297Z,97.80
2019-04-19T07:03:53.658Z,95.90
2019-04-19T07:06:36.313Z,95.80
2019-04-19T07:09:31.073Z,95.10
2019-04-19T07:11:46.299Z,95.90
2019-04-19T07:14:01.506Z,95.30
2019-04-19T07:16:44.111Z,94.50
2019-04-19T07:19:11.850Z,93.40
2019-04-19T07:21:42.666Z,91.80
2019-04-19T07:24:20.442Z,90.40
2019-04-19T07:26:45.547Z,88.60
2019-04-19T07:28:55.801Z,90.40
2019-04-19T07:31:25.771Z,88.50
2019-04-19T07:36:57.689Z,88.80
2019-04-19T07:39:13.328Z,84.80
2019-04-19T07:41:49.482Z,81.20
2019-04-19T07:44:09.965Z,79.50
2019-04-19T07:46:44.466Z,79.00
2019-04-19T07:49:01.842Z,83.40
2019-04-19T07:51:35.927Z,81.70
2019-04-19T07:59:28.104Z,82.80
2019-04-19T08:04:48.726Z,78.10
2019-04-19T08:07:01.522Z,75.80
2019-04-19T08:09:31.173Z,76.70
2019-04-19T08:29:21.079Z,61.90
2019-04-19T08:34:09.313Z,56.20
2019-04-19T08:36:41.007Z,55.70
2019-04-19T08:39:20.124Z,58.10
2019-04-19T08:41:57.644Z,58.80
2019-04-19T08:44:18.112Z,59.30
2019-04-19T08:46:41.379Z,56.30
2019-04-19T08:49:30.119Z,54.20
2019-04-19T08:51:55.881Z,53.20
2019-04-19T08:54:47.678Z,52.50
2019-04-19T08:57:02.944Z,55.20
2019-04-19T08:59:49.155Z,53.50
2019-04-19T09:02:16.521Z,51.60
2019-04-19T09:04:45.520Z,51.30
2019-04-19T09:09:59.023Z,53.40
2019-04-19T09:12:12.334Z,50.90
2019-04-19T09:14:50.012Z,52.70
2019-04-19T09:22:14.589Z,49.80
2019-04-19T09:24:39.793Z,52.70
2019-04-19T09:27:26.213Z,52.40
2019-04-19T09:29:53.536Z,50.40
2019-04-19T09:32:06.657Z,47.40
2019-04-19T09:34:30.435Z,47.70
2019-04-19T09:37:11.268Z,49.00
2019-04-19T09:39:41.364Z,49.00
2019-04-19T09:42:09.256Z,47.90
2019-04-19T09:44:39.359Z,44.30
2019-04-19T09:46:59.600Z,46.50
2019-04-19T09:49:46.256Z,46.20
2019-04-19T09:52:22.693Z,47.10
2019-04-19T09:54:53.485Z,45.00
2019-04-19T09:57:20.875Z,43.30
2019-04-19T10:04:29.521Z,44.90
2019-04-19T10:06:58.685Z,46.20
2019-04-19T10:09:27.370Z,46.30
2019-04-19T10:11:57.908Z,42.60
2019-04-19T10:14:27.613Z,43.30
2019-04-19T10:16:58.218Z,42.80
2019-04-19T10:19:26.847Z,41.70
2019-04-19T10:21:58.210Z,41.50
2019-04-19T10:24:27.767Z,41.30
2019-04-19T10:27:02.829Z,40.20
2019-04-19T10:32:18.183Z,42.00
2019-04-19T10:34:46.724Z,44.10
2019-04-19T10:37:15.638Z,44.80
2019-04-19T10:39:45.618Z,43.00
2019-04-19T10:42:17.773Z,42.40
2019-04-19T10:44:44.995Z,42.50
2019-04-19T10:47:14.573Z,40.10
2019-04-19T10:49:51.163Z,39.30
2019-04-19T10:54:57.155Z,40.90
2019-04-19T10:57:27.379Z,40.70
2019-04-19T10:59:59.087Z,42.70
2019-04-19T11:02:29.845Z,40.30
2019-04-19T11:04:58.937Z,39.20
2019-04-19T11:07:29.651Z,40.80
2019-04-19T11:09:59.682Z,41.70
2019-04-19T11:12:28.365Z,39.50
2019-04-19T11:17:25.501Z,40.50
2019-04-19T11:22:24.031Z,38.70
2019-04-19T11:24:52.587Z,39.30
2019-04-19T11:29:52.329Z,38.90
2019-04-19T11:32:28.573Z,36.70
2019-04-19T11:34:57.035Z,37.00
2019-04-19T11:37:25.680Z,39.40
2019-04-19T11:39:55.172Z,37.60
2019-04-19T11:42:23.901Z,36.70
2019-04-19T11:44:52.513Z,36.60
2019-04-19T11:49:49.391Z,36.00
2019-04-19T11:52:19.972Z,36.60
2019-04-19T11:54:48.584Z,34.30
2019-04-19T11:57:18.771Z,35.30
2019-04-19T11:59:52.701Z,35.80
2019-04-19T12:02:25.753Z,36.50
2019-04-19T12:04:54.532Z,34.90
2019-04-19T12:07:24.257Z,35.60
2019-04-19T12:09:54.368Z,36.60
2019-04-19T12:12:23.330Z,39.00
2019-04-19T12:14:52.117Z,40.00
2019-04-19T12:17:22.966Z,38.00
2019-04-19T12:22:21.627Z,38.30
2019-04-19T12:24:53.282Z,36.80
2019-04-19T12:29:52.422Z,36.40
2019-04-19T12:32:21.468Z,35.10
2019-04-19T12:34:50.850Z,36.40
2019-04-19T12:37:19.539Z,36.70
2019-04-19T12:42:21.961Z,33.70
2019-04-19T12:44:50.450Z,34.30
2019-04-19T12:47:19.275Z,29.60
2019-04-19T12:49:53.713Z,34.90
2019-04-19T12:52:18.165Z,36.40
2019-04-19T12:54:48.349Z,34.90
2019-04-19T12:57:18.151Z,34.10
2019-04-19T12:59:47.642Z,35.70
2019-04-19T13:02:31.609Z,35.90
2019-04-19T13:05:04.622Z,33.90
2019-04-19T13:07:33.226Z,35.90
2019-04-19T13:10:02.881Z,37.50
2019-04-19T13:12:32.787Z,36.70
2019-04-19T13:15:01.997Z,37.10
2019-04-19T13:17:30.682Z,39.20
2019-04-19T13:20:08.674Z,37.20
2019-04-19T13:22:30.379Z,36.70
2019-04-19T13:27:37.387Z,37.70
2019-04-19T13:30:08.737Z,34.90
2019-04-19T13:34:59.094Z,39.20
2019-04-19T13:37:33.561Z,35.40
2019-04-19T13:40:10.298Z,37.60
2019-04-19T13:42:39.120Z,37.90
2019-04-19T13:45:17.910Z,36.00
2019-04-19T13:47:39.071Z,37.20
2019-04-19T13:50:20.768Z,36.70
2019-04-19T13:55:08.657Z,36.00
2019-04-19T13:57:37.710Z,39.50
2019-04-19T14:00:11.920Z,38.20
2019-04-19T14:05:11.571Z,39.30
2019-04-19T14:07:41.145Z,35.60
2019-04-19T14:10:10.342Z,38.90
2019-04-19T14:12:38.943Z,37.70
2019-04-19T14:17:36.064Z,40.00
2019-04-19T14:20:07.764Z,39.80
2019-04-19T14:22:37.361Z,43.00
2019-04-19T14:25:07.410Z,40.60
2019-04-19T14:27:35.984Z,38.90
2019-04-19T14:30:09.205Z,38.10
2019-04-19T14:32:39.039Z,38.90
2019-04-19T14:35:08.184Z,42.10
2019-04-19T14:37:36.760Z,39.60
2019-04-19T14:40:07.020Z,40.40
2019-04-19T14:42:36.320Z,38.80
2019-04-19T14:45:07.983Z,38.70
2019-04-19T14:47:37.036Z,41.70
2019-04-19T14:50:07.300Z,38.30
2019-04-19T14:52:36.571Z,41.90
2019-04-19T14:55:09.934Z,40.20
2019-04-19T14:57:38.889Z,40.40
2019-04-19T15:00:09.964Z,41.30
2019-04-19T15:02:40.828Z,40.50
2019-04-19T15:05:17.448Z,39.40
2019-04-19T15:07:46.389Z,42.70
2019-04-19T15:10:15.930Z,41.80
2019-04-19T15:12:44.912Z,42.80
2019-04-19T15:15:14.576Z,39.40
2019-04-19T15:17:43.535Z,41.40
2019-04-19T15:20:14.356Z,42.30
2019-04-19T15:22:44.322Z,39.80
2019-04-19T15:25:15.334Z,40.80
2019-04-19T15:30:14.946Z,42.90
2019-04-19T15:32:44.502Z,40.60
2019-04-19T15:35:14.248Z,43.00
2019-04-19T15:40:16.030Z,43.70
2019-04-19T15:42:45.142Z,40.50
2019-04-19T15:45:15.073Z,41.70
2019-04-19T15:47:44.591Z,42.40
2019-04-19T15:50:14.077Z,43.40
2019-04-19T15:52:42.583Z,43.50
2019-04-19T15:55:12.245Z,41.30
2019-04-19T15:57:41.884Z,42.70
2019-04-19T16:00:18.101Z,45.00
2019-04-19T16:05:36.401Z,46.00
2019-04-19T16:10:42.552Z,46.00
2019-04-19T16:13:11.727Z,43.20
2019-04-19T16:15:40.251Z,44.20
2019-04-19T16:18:08.720Z,42.80
2019-04-19T16:20:37.255Z,44.80
2019-04-19T16:23:05.893Z,43.30
2019-04-19T16:25:35.910Z,46.00
2019-04-19T16:28:05.380Z,45.90
2019-04-19T16:30:34.577Z,42.90
2019-04-19T16:33:03.725Z,43.60
2019-04-19T16:35:32.339Z,43.60
2019-04-19T16:38:01.466Z,43.70
2019-04-19T16:40:30.200Z,44.40
2019-04-19T16:42:59.355Z,44.50
2019-04-19T16:45:30.175Z,44.40
2019-04-19T16:47:59.845Z,48.40
2019-04-19T16:52:57.013Z,46.30
2019-04-19T16:55:25.551Z,45.20
2019-04-19T16:57:54.596Z,44.40
2019-04-19T17:00:38.719Z,45.30
2019-04-19T17:03:07.344Z,48.70
2019-04-19T17:08:05.581Z,47.00
2019-04-19T17:10:34.390Z,46.90
2019-04-19T17:13:03.933Z,46.20
2019-04-19T17:18:27.485Z,46.50
2019-04-19T17:23:26.683Z,46.90
2019-04-19T17:25:55.222Z,49.30
2019-04-19T17:28:25.029Z,46.70
2019-04-19T17:30:54.120Z,47.20
2019-04-19T17:33:24.073Z,50.30
2019-04-19T17:35:54.103Z,47.30
2019-04-19T17:38:31.298Z,48.00
2019-04-19T17:40:53.105Z,47.50
2019-04-19T17:43:21.594Z,47.80
2019-04-19T17:45:50.522Z,48.00
2019-04-19T17:48:19.160Z,47.70
2019-04-19T17:50:47.912Z,47.70
2019-04-19T17:53:18.324Z,48.00
2019-04-19T17:55:51.257Z,50.70
2019-04-19T17:58:17.333Z,57.90
2019-04-19T18:00:48.728Z,58.20
2019-04-19T18:03:17.717Z,58.30
2019-04-19T18:05:46.308Z,62.70
2019-04-19T18:18:13.724Z,59.30
2019-04-19T18:33:28.860Z,63.60
2019-04-19T18:36:00.917Z,67.80
2019-04-19T18:38:28.060Z,61.30
2019-04-19T18:40:57.484Z,60.70
2019-04-19T18:43:37.204Z,65.80
2019-04-19T18:45:57.007Z,66.30
2019-04-19T18:48:25.747Z,67.00
2019-04-19T18:53:32.837Z,67.30
2019-04-19T18:58:28.220Z,67.40
2019-04-19T19:03:26.272Z,60.80
2019-04-19T19:13:29.895Z,67.60
2019-04-19T19:15:56.673Z,64.60
2019-04-19T19:23:40.334Z,68.60
2019-04-19T19:26:06.122Z,69.30
2019-04-19T19:28:25.454Z,65.20
2019-04-19T19:38:29.842Z,65.90
2019-04-19T19:43:40.693Z,68.90
2019-04-19T19:48:55.244Z,69.40
2019-04-19T19:58:32.062Z,67.00
2019-04-19T20:03:34.548Z,68.30
2019-04-19T20:05:58.058Z,72.10
2019-04-19T20:08:32.402Z,70.70
2019-04-19T20:10:56.336Z,62.20
2019-04-19T20:13:32.845Z,66.60
2019-04-19T20:15:56.639Z,66.20
2019-04-19T20:20:56.504Z,65.90
2019-04-19T20:23:31.612Z,70.50
2019-04-19T20:26:10.801Z,68.50
2019-04-19T20:28:30.686Z,72.00
2019-04-19T20:30:58.719Z,70.90
2019-04-19T20:38:31.047Z,57.20
2019-04-19T20:43:43.961Z,60.30
2019-04-19T20:46:06.068Z,59.50
2019-04-19T20:48:29.430Z,58.70
2019-04-19T20:58:38.984Z,60.00
2019-04-19T21:01:01.014Z,64.60
2019-04-19T21:03:33.381Z,61.30
2019-04-19T21:06:00.038Z,62.20
2019-04-19T21:08:30.261Z,66.00
2019-04-19T21:11:02.709Z,63.00
2019-04-19T21:13:29.332Z,67.30
2019-04-19T21:15:58.383Z,63.80
2019-04-19T21:18:28.885Z,67.30
2019-04-19T21:21:03.784Z,67.90
2019-04-19T21:26:00.644Z,68.60
2019-04-19T21:28:33.393Z,66.40
2019-04-19T21:36:01.088Z,72.10
2019-04-19T21:38:27.207Z,72.10
2019-04-19T21:40:56.184Z,70.30
2019-04-19T21:43:28.508Z,69.30
2019-04-19T21:48:26.917Z,69.30
2019-04-19T21:53:25.841Z,69.10
2019-04-19T21:56:01.708Z,68.80
2019-04-19T21:58:25.047Z,68.90
2019-04-19T22:01:08.130Z,69.30
2019-04-19T22:03:30.857Z,68.30
2019-04-19T22:08:33.338Z,70.20
2019-04-19T22:11:00.453Z,71.60
2019-04-19T22:16:02.023Z,72.10
2019-04-19T22:18:32.282Z,76.50
2019-04-19T22:21:03.167Z,72.20
2019-04-19T22:23:30.890Z,73.20
2019-04-19T22:26:13.322Z,75.20
2019-04-19T22:28:29.931Z,72.80
2019-04-19T22:31:00.218Z,71.00
2019-04-19T22:33:30.246Z,73.60
2019-04-19T22:36:03.624Z,70.90
2019-04-19T22:38:29.695Z,70.00
2019-04-19T22:41:05.444Z,72.40
2019-04-19T22:43:28.858Z,72.60
2019-04-19T22:46:04.312Z,69.20
2019-04-19T22:48:29.389Z,69.10
2019-04-19T22:51:03.817Z,70.70
2019-04-19T22:53:34.246Z,69.80
2019-04-19T22:56:11.779Z,73.80
2019-04-19T22:58:31.459Z,70.30
2019-04-19T23:00:59.260Z,70.40
2019-04-19T23:03:33.605Z,74.80
2019-04-19T23:05:59.667Z,74.90
2019-04-19T23:08:33.118Z,72.20
2019-04-19T23:11:02.676Z,71.00
2019-04-19T23:13:29.509Z,71.90
2019-04-19T23:18:29.429Z,71.80
2019-04-19T23:21:05.539Z,73.50
2019-04-19T23:23:31.669Z,75.70
2019-04-19T23:28:34.109Z,73.50
2019-04-19T23:31:05.444Z,72.70
2019-04-19T23:35:59.612Z,71.80
2019-04-19T23:38:30.813Z,74.30
2019-04-19T23:43:34.223Z,71.50
2019-04-19T23:45:58.116Z,72.50
2019-04-19T23:50:56.662Z,75.60
2019-04-19T23:55:56.300Z,72.20
2019-04-19T23:58:29.402Z,72.00
